KGPI

Glacier Park International Airport

Airport
ICAO code
KGPI
IATA Code
FCA
Summary
ICAO Region
NAM
ICAO Territory
Location

Kalispell, Montana

Serving
Flathead County
Elevation
2977 ft
Coordinates
48° 18' 41" N , 114° 15' 17" W
KCC
Airport CFIT
Altimeter Temperature Error Correction
Airport WX
Mountain Waves
Metar
KGPI 230455Z 30003KT 10SM CLR 15/09 A2984 RMK AO2 SLP094 T01500094 $

Glacier Park International Airport is a public airport located 6 nm northeast of the central business district of Kalispell, in Flathead County, Montana, USA. It also serves the towns of Evergreen, Columbia Falls and Whitefish as well as Glacier National Park.

Airport map

Aerial View

SKYbrary Partners:

Safety knowledge contributed by: